Saint-Leon-De-Standon, Canada
Current Conditions -  °F | °C
As of 8:00 AM on Wednesday 22 Oct 2014 (Local Time) from CYQB Reporting Station
Broken Clouds Broken Clouds  
Wind Chill: 34°   Ceiling: 6200
Heat Index: 43°   Visibility: 30mi
Dew Point: 32°   Wind: 21mph
Humidity: 66%   Direction: 60°ENE
Pressure: 30.36"   Gusts: 29mph
Location:  46.48°N, 70.62°W
Report Text: CYQB 221200Z 06018G25KT 30SM FEW010 BKN062 06/00 A3036 RMK SF1SC7 SF TR SLP282
Loading
Personal Weather Stations






























Interactive Weather Map
Tropical Storm Tracking
New forecast layout! Learn more

10-Day Weather Forecast

Advertisements
Track Severe Weather on mobile